THY801 LTFM-SKBO
Flight info
| Callsign | THY801 |
|---|---|
| Flight time | 13h 27m |
| Altitude | 36000 |
| Route | N0484F360 VADEN N618 GOL Y520 LUKOV Q8 DOLAP DCT MITNO DCT RIVUS DCT BAXON/N0488F360 DCT RONOP DCT GIGUS DCT BALSI DCT GIPNO DCT RUSIT DCT TIS DCT VALKU/N0483F360 DCT PECNO DCT GALOF DCT GATMO DCT RIVAK/M085F360 DCT SIVIR/M085F350 DCT 46N015W DCT 46N020W DCT 45N030W/M085F380 DCT 41N040W DCT 35N050W DCT 30N054W DCT 25N057W DCT RKDIA M576 OBIKE/N0492F380 L335 SCAPA UL325 ENPUT DCT DOPLO DOPL5W |
| Aircraft | A359/H-SADE1E2E3FGHIJ1J3J4J5P2RWXYZ/LB1D1 |
Departure
| Time | 2026-04-30 20:02 |
|---|---|
| Airport | İstanbul Airport (LTFM) |
Arrival
| Time | 2026-05-01 09:29 |
|---|---|
| Airport | El Dorado International Airport (SKBO) |
| Time | Latitude | Longitude | Altitude | Speed | Heading |
|---|---|---|---|---|---|
| 2026-04-30 19:26 | 41.26870 | 28.74363 | 340 ft | 0 kts | 267° |
| 2026-04-30 19:51 | 41.26870 | 28.74381 | 340 ft | 3 kts | 267° |
| 2026-04-30 19:51 | 41.26871 | 28.74412 | 335 ft | 3 kts | 267° |
| 2026-04-30 19:52 | 41.26872 | 28.74438 | 335 ft | 3 kts | 276° |
| 2026-04-30 19:52 | 41.26866 | 28.74460 | 336 ft | 3 kts | 336° |
| 2026-04-30 19:52 | 41.26845 | 28.74466 | 340 ft | 3 kts | 359° |
| 2026-04-30 19:52 | 41.26822 | 28.74466 | 335 ft | 3 kts | 359° |
| 2026-04-30 19:53 | 41.26817 | 28.74466 | 340 ft | 0 kts | 359° |
| 2026-04-30 19:56 | 41.26821 | 28.74466 | 340 ft | 2 kts | 359° |
| 2026-04-30 19:56 | 41.26854 | 28.74466 | 338 ft | 8 kts | 359° |
| 2026-04-30 19:56 | 41.26922 | 28.74465 | 340 ft | 10 kts | 4° |
| 2026-04-30 19:56 | 41.26964 | 28.74527 | 336 ft | 10 kts | 72° |
| 2026-04-30 19:57 | 41.26974 | 28.74618 | 335 ft | 10 kts | 88° |
| 2026-04-30 19:57 | 41.26975 | 28.74717 | 338 ft | 11 kts | 89° |
| 2026-04-30 19:57 | 41.26977 | 28.74832 | 339 ft | 13 kts | 89° |
| 2026-04-30 19:57 | 41.26978 | 28.74958 | 340 ft | 14 kts | 89° |
| 2026-04-30 19:58 | 41.26980 | 28.75091 | 335 ft | 15 kts | 89° |
| 2026-04-30 19:58 | 41.26982 | 28.75231 | 339 ft | 15 kts | 89° |
| 2026-04-30 19:58 | 41.26983 | 28.75319 | 336 ft | 6 kts | 91° |
| 2026-04-30 19:58 | 41.26954 | 28.75364 | 335 ft | 10 kts | 154° |
| 2026-04-30 19:59 | 41.26851 | 28.75377 | 338 ft | 17 kts | 179° |
| 2026-04-30 19:59 | 41.26725 | 28.75380 | 335 ft | 19 kts | 179° |
| 2026-04-30 19:59 | 41.26476 | 28.75386 | 335 ft | 17 kts | 179° |
| 2026-04-30 20:00 | 41.26370 | 28.75388 | 340 ft | 15 kts | 179° |
| 2026-04-30 20:00 | 41.26276 | 28.75400 | 336 ft | 12 kts | 155° |
| 2026-04-30 20:00 | 41.26249 | 28.75495 | 340 ft | 12 kts | 91° |
| 2026-04-30 20:00 | 41.26251 | 28.75609 | 339 ft | 13 kts | 84° |
| 2026-04-30 20:01 | 41.26421 | 28.75663 | 336 ft | 30 kts | 359° |
| 2026-04-30 20:01 | 41.26850 | 28.75655 | 337 ft | 92 kts | 359° |
| 2026-04-30 20:01 | 41.27676 | 28.75638 | 337 ft | 144 kts | 359° |
| 2026-04-30 20:02 | 41.29718 | 28.75681 | 1569 ft | 145 kts | 23° |
| 2026-04-30 20:02 | 41.30613 | 28.76402 | 1962 ft | 156 kts | 35° |
| 2026-04-30 20:03 | 41.32676 | 28.78178 | 2453 ft | 198 kts | 32° |
| 2026-04-30 20:03 | 41.33921 | 28.79165 | 2776 ft | 219 kts | 31° |
| 2026-04-30 20:03 | 41.35292 | 28.80223 | 3165 ft | 235 kts | 30° |
| 2026-04-30 20:03 | 41.36725 | 28.81317 | 3816 ft | 238 kts | 30° |
| 2026-04-30 20:04 | 41.38231 | 28.82262 | 4467 ft | 243 kts | 17° |
| 2026-04-30 20:04 | 41.39939 | 28.82424 | 5091 ft | 251 kts | 358° |
| 2026-04-30 20:04 | 41.41692 | 28.82219 | 5704 ft | 257 kts | 355° |
| 2026-04-30 20:05 | 41.45372 | 28.81716 | 6917 ft | 271 kts | 353° |
| 2026-04-30 20:05 | 41.47274 | 28.81471 | 7515 ft | 279 kts | 351° |
| 2026-04-30 20:05 | 41.51226 | 28.80970 | 8740 ft | 291 kts | 351° |
| 2026-04-30 20:06 | 41.53253 | 28.80722 | 9474 ft | 294 kts | 350° |
| 2026-04-30 20:06 | 41.55319 | 28.80473 | 10130 ft | 302 kts | 349° |
| 2026-04-30 20:06 | 41.57450 | 28.80207 | 10583 ft | 315 kts | 349° |
| 2026-04-30 20:06 | 41.59655 | 28.79666 | 10808 ft | 330 kts | 335° |
| 2026-04-30 20:07 | 41.61577 | 28.78027 | 11060 ft | 332 kts | 308° |
| 2026-04-30 20:07 | 41.62788 | 28.75410 | 11477 ft | 334 kts | 288° |
| 2026-04-30 20:07 | 41.64485 | 28.69544 | 12776 ft | 343 kts | 287° |
| 2026-04-30 20:08 | 41.65345 | 28.66551 | 13385 ft | 348 kts | 287° |
| 2026-04-30 20:08 | 41.66222 | 28.63513 | 14029 ft | 352 kts | 287° |
| 2026-04-30 20:08 | 41.66893 | 28.60385 | 14638 ft | 349 kts | 275° |
| 2026-04-30 20:08 | 41.67069 | 28.57163 | 15267 ft | 348 kts | 268° |
| 2026-04-30 20:09 | 41.67106 | 28.53926 | 15874 ft | 349 kts | 268° |
| 2026-04-30 20:09 | 41.67133 | 28.50663 | 16417 ft | 353 kts | 268° |
| 2026-04-30 20:09 | 41.67197 | 28.44071 | 17633 ft | 356 kts | 268° |
| 2026-04-30 20:10 | 41.67258 | 28.37387 | 18793 ft | 362 kts | 268° |
| 2026-04-30 20:10 | 41.67291 | 28.34063 | 19371 ft | 364 kts | 269° |
| 2026-04-30 20:10 | 41.67326 | 28.30670 | 19954 ft | 366 kts | 268° |
| 2026-04-30 20:11 | 41.67389 | 28.23827 | 21127 ft | 370 kts | 268° |
| 2026-04-30 20:11 | 41.67419 | 28.20376 | 21701 ft | 372 kts | 268° |
| 2026-04-30 20:11 | 41.67451 | 28.16904 | 22291 ft | 374 kts | 268° |
| 2026-04-30 20:12 | 41.67508 | 28.09912 | 23346 ft | 378 kts | 268° |
| 2026-04-30 20:12 | 41.67664 | 28.06374 | 23836 ft | 384 kts | 274° |
| 2026-04-30 20:12 | 41.68254 | 28.02866 | 24376 ft | 389 kts | 284° |
| 2026-04-30 20:13 | 41.69343 | 27.99521 | 24924 ft | 396 kts | 294° |
| 2026-04-30 20:13 | 41.70791 | 27.96353 | 25442 ft | 401 kts | 297° |
| 2026-04-30 20:13 | 41.72317 | 27.93232 | 25946 ft | 401 kts | 297° |
| 2026-04-30 20:13 | 41.73848 | 27.90092 | 26380 ft | 404 kts | 297° |
| 2026-04-30 20:14 | 41.75384 | 27.86935 | 26840 ft | 405 kts | 297° |
| 2026-04-30 20:14 | 41.76919 | 27.83763 | 27293 ft | 407 kts | 297° |
| 2026-04-30 20:14 | 41.78460 | 27.80572 | 27747 ft | 408 kts | 297° |
| 2026-04-30 20:14 | 41.79997 | 27.77359 | 28233 ft | 410 kts | 297° |
| 2026-04-30 20:15 | 41.81556 | 27.74136 | 28694 ft | 412 kts | 297° |
| 2026-04-30 20:15 | 41.83112 | 27.70904 | 29173 ft | 413 kts | 297° |
| 2026-04-30 20:15 | 41.84668 | 27.67659 | 29627 ft | 414 kts | 297° |
| 2026-04-30 20:15 | 41.86228 | 27.64399 | 30040 ft | 417 kts | 296° |
| 2026-04-30 20:16 | 41.87797 | 27.61118 | 30436 ft | 419 kts | 296° |
| 2026-04-30 20:16 | 41.89372 | 27.57822 | 30736 ft | 420 kts | 296° |
| 2026-04-30 20:16 | 41.90953 | 27.54507 | 31020 ft | 423 kts | 297° |
| 2026-04-30 20:16 | 41.92546 | 27.51172 | 31334 ft | 425 kts | 297° |
| 2026-04-30 20:17 | 41.94140 | 27.47826 | 31590 ft | 426 kts | 297° |
| 2026-04-30 20:17 | 41.95738 | 27.44467 | 31931 ft | 427 kts | 296° |
| 2026-04-30 20:17 | 41.97335 | 27.41107 | 32259 ft | 427 kts | 296° |
| 2026-04-30 20:17 | 41.98937 | 27.37732 | 32524 ft | 429 kts | 296° |
| 2026-04-30 20:18 | 42.00543 | 27.34345 | 32854 ft | 429 kts | 296° |
| 2026-04-30 20:18 | 42.02140 | 27.30969 | 33271 ft | 427 kts | 296° |
| 2026-04-30 20:18 | 42.03734 | 27.27603 | 33667 ft | 425 kts | 296° |
| 2026-04-30 20:18 | 42.05320 | 27.24254 | 34021 ft | 424 kts | 296° |
| 2026-04-30 20:19 | 42.07040 | 27.21007 | 34313 ft | 429 kts | 302° |
| 2026-04-30 20:19 | 42.08303 | 27.18966 | 34552 ft | 428 kts | 303° |
| 2026-04-30 20:19 | 42.10931 | 27.14930 | 34863 ft | 430 kts | 305° |
| 2026-04-30 20:19 | 42.12941 | 27.11928 | 34974 ft | 432 kts | 306° |
| 2026-04-30 20:20 | 42.14966 | 27.08921 | 35152 ft | 434 kts | 306° |
| 2026-04-30 20:20 | 42.16994 | 27.05904 | 35304 ft | 435 kts | 306° |
| 2026-04-30 20:20 | 42.18995 | 27.02914 | 35472 ft | 436 kts | 306° |
| 2026-04-30 20:20 | 42.21053 | 26.99827 | 35650 ft | 437 kts | 306° |
| 2026-04-30 20:21 | 42.23054 | 26.96811 | 35833 ft | 438 kts | 306° |
| 2026-04-30 20:21 | 42.25082 | 26.93746 | 36019 ft | 438 kts | 306° |
| 2026-04-30 20:21 | 42.27143 | 26.90629 | 36186 ft | 440 kts | 306° |
| 2026-04-30 20:22 | 42.31209 | 26.84458 | 36201 ft | 444 kts | 306° |
| 2026-04-30 20:22 | 42.35309 | 26.78231 | 36218 ft | 443 kts | 306° |
| 2026-04-30 20:23 | 42.39402 | 26.72002 | 36226 ft | 443 kts | 306° |
| 2026-04-30 20:23 | 42.43499 | 26.65752 | 36224 ft | 444 kts | 306° |
| 2026-04-30 20:24 | 42.47594 | 26.59498 | 36219 ft | 444 kts | 306° |
| 2026-04-30 20:24 | 42.51663 | 26.53214 | 36226 ft | 442 kts | 304° |
| 2026-04-30 20:25 | 42.56017 | 26.42443 | 36236 ft | 433 kts | 287° |
| 2026-04-30 20:26 | 42.59001 | 26.30878 | 36241 ft | 434 kts | 285° |
| 2026-04-30 20:26 | 42.61878 | 26.19319 | 36262 ft | 433 kts | 286° |
| 2026-04-30 20:27 | 42.65774 | 26.03776 | 36263 ft | 435 kts | 286° |
| 2026-04-30 20:28 | 42.69658 | 25.88201 | 36277 ft | 435 kts | 286° |
| 2026-04-30 20:30 | 42.74500 | 25.68650 | 36289 ft | 436 kts | 286° |
| 2026-04-30 20:31 | 42.80278 | 25.45088 | 36292 ft | 439 kts | 286° |
| 2026-04-30 20:32 | 42.85080 | 25.25326 | 36306 ft | 440 kts | 285° |
| 2026-04-30 20:33 | 42.87933 | 25.13511 | 36310 ft | 439 kts | 285° |
| 2026-04-30 20:34 | 42.90785 | 25.01637 | 36315 ft | 439 kts | 285° |
| 2026-04-30 20:35 | 42.93625 | 24.89743 | 36317 ft | 440 kts | 285° |
| 2026-04-30 20:35 | 42.96466 | 24.77780 | 36322 ft | 442 kts | 285° |
| 2026-04-30 20:36 | 42.98356 | 24.69785 | 36322 ft | 442 kts | 285° |
| 2026-04-30 20:37 | 43.01185 | 24.57790 | 36332 ft | 443 kts | 285° |
| 2026-04-30 20:37 | 43.03070 | 24.49743 | 36329 ft | 446 kts | 286° |
| 2026-04-30 20:38 | 43.04954 | 24.41670 | 36335 ft | 445 kts | 286° |
| 2026-04-30 20:38 | 43.06833 | 24.33603 | 36333 ft | 445 kts | 285° |
| 2026-04-30 20:39 | 43.09490 | 24.22906 | 36332 ft | 449 kts | 292° |
| 2026-04-30 20:40 | 43.14193 | 24.11758 | 36334 ft | 452 kts | 299° |
| 2026-04-30 20:40 | 43.17552 | 24.04475 | 36361 ft | 452 kts | 300° |
| 2026-04-30 20:41 | 43.22598 | 23.93526 | 36338 ft | 454 kts | 300° |
| 2026-04-30 20:41 | 43.25945 | 23.86172 | 36336 ft | 454 kts | 298° |
| 2026-04-30 20:42 | 43.28420 | 23.78263 | 36341 ft | 451 kts | 284° |
| 2026-04-30 20:43 | 43.29905 | 23.65545 | 36340 ft | 451 kts | 276° |
| 2026-04-30 20:43 | 43.30630 | 23.56982 | 36341 ft | 452 kts | 276° |
| 2026-04-30 20:44 | 43.31725 | 23.44134 | 36337 ft | 452 kts | 276° |
| 2026-04-30 20:45 | 43.33204 | 23.26991 | 36336 ft | 452 kts | 277° |
| 2026-04-30 20:45 | 43.33940 | 23.18463 | 36333 ft | 453 kts | 277° |
| 2026-04-30 20:46 | 43.35400 | 23.01271 | 36333 ft | 453 kts | 277° |
| 2026-04-30 20:47 | 43.36475 | 22.88357 | 36331 ft | 455 kts | 277° |
| 2026-04-30 20:48 | 43.37541 | 22.75414 | 36320 ft | 455 kts | 277° |
| 2026-04-30 20:48 | 43.38554 | 22.66834 | 36316 ft | 455 kts | 281° |
| 2026-04-30 20:49 | 43.39742 | 22.58298 | 36314 ft | 455 kts | 281° |
| 2026-04-30 20:50 | 43.41447 | 22.45421 | 36314 ft | 457 kts | 280° |
| 2026-04-30 20:50 | 43.42528 | 22.36872 | 36311 ft | 456 kts | 280° |
| 2026-04-30 20:51 | 43.43609 | 22.28214 | 36308 ft | 456 kts | 280° |
| 2026-04-30 20:51 | 43.45212 | 22.15289 | 36301 ft | 457 kts | 280° |
| 2026-04-30 20:52 | 43.46275 | 22.06668 | 36298 ft | 457 kts | 280° |
| 2026-04-30 20:53 | 43.47852 | 21.93770 | 36295 ft | 457 kts | 280° |
| 2026-04-30 20:53 | 43.48899 | 21.85142 | 36296 ft | 457 kts | 280° |
| 2026-04-30 20:54 | 43.50461 | 21.72180 | 36297 ft | 457 kts | 280° |
| 2026-04-30 20:55 | 43.52010 | 21.59141 | 36298 ft | 457 kts | 279° |
| 2026-04-30 20:55 | 43.53034 | 21.50480 | 36300 ft | 458 kts | 280° |
| 2026-04-30 20:56 | 43.54558 | 21.37451 | 36298 ft | 460 kts | 279° |
| 2026-04-30 20:57 | 43.56070 | 21.24451 | 36291 ft | 460 kts | 279° |
| 2026-04-30 20:57 | 43.57069 | 21.15764 | 36292 ft | 458 kts | 279° |
| 2026-04-30 20:58 | 43.58550 | 21.02742 | 36297 ft | 458 kts | 279° |
| 2026-04-30 20:58 | 43.59532 | 20.94060 | 36298 ft | 458 kts | 279° |
| 2026-04-30 20:59 | 43.60987 | 20.81023 | 36297 ft | 459 kts | 279° |
| 2026-04-30 21:00 | 43.62917 | 20.63596 | 36305 ft | 460 kts | 279° |
| 2026-04-30 21:01 | 43.64344 | 20.50513 | 36299 ft | 460 kts | 279° |
| 2026-04-30 21:02 | 43.65759 | 20.37403 | 36305 ft | 460 kts | 279° |
| 2026-04-30 21:02 | 43.66697 | 20.28664 | 36308 ft | 460 kts | 279° |
| 2026-04-30 21:03 | 43.67625 | 20.19923 | 36313 ft | 460 kts | 279° |
| 2026-04-30 21:03 | 43.68542 | 20.11175 | 36317 ft | 460 kts | 279° |
| 2026-04-30 21:04 | 43.69462 | 20.02418 | 36319 ft | 461 kts | 279° |
| 2026-04-30 21:04 | 43.70832 | 19.89232 | 36326 ft | 462 kts | 279° |
| 2026-04-30 21:05 | 43.71736 | 19.80436 | 36329 ft | 462 kts | 279° |
| 2026-04-30 21:05 | 43.72630 | 19.71647 | 36328 ft | 462 kts | 279° |
| 2026-04-30 21:06 | 43.73515 | 19.62847 | 36333 ft | 462 kts | 279° |
| 2026-04-30 21:06 | 43.74392 | 19.54102 | 36335 ft | 462 kts | 279° |
| 2026-04-30 21:07 | 43.75268 | 19.45294 | 36332 ft | 462 kts | 279° |
| 2026-04-30 21:07 | 43.76137 | 19.36480 | 36328 ft | 462 kts | 279° |
| 2026-04-30 21:08 | 43.77003 | 19.27652 | 36330 ft | 464 kts | 279° |
| 2026-04-30 21:08 | 43.77931 | 19.18821 | 36345 ft | 463 kts | 281° |
| 2026-04-30 21:09 | 43.79141 | 19.10067 | 36342 ft | 463 kts | 282° |
| 2026-04-30 21:09 | 43.80383 | 19.01325 | 36332 ft | 463 kts | 282° |
| 2026-04-30 21:10 | 43.81579 | 18.92562 | 36346 ft | 463 kts | 282° |
| 2026-04-30 21:10 | 43.82740 | 18.83787 | 36347 ft | 463 kts | 282° |
| 2026-04-30 21:11 | 43.83890 | 18.75006 | 36344 ft | 464 kts | 282° |
| 2026-04-30 21:11 | 43.85038 | 18.66216 | 36337 ft | 464 kts | 282° |
| 2026-04-30 21:12 | 43.86179 | 18.57411 | 36343 ft | 465 kts | 282° |
| 2026-04-30 21:12 | 43.87316 | 18.48593 | 36346 ft | 465 kts | 282° |
| 2026-04-30 21:13 | 43.88444 | 18.39767 | 36346 ft | 465 kts | 282° |
| 2026-04-30 21:13 | 43.89566 | 18.30936 | 36336 ft | 464 kts | 282° |
| 2026-04-30 21:14 | 43.90674 | 18.22145 | 36344 ft | 462 kts | 282° |
| 2026-04-30 21:14 | 43.91778 | 18.13369 | 36341 ft | 462 kts | 282° |
| 2026-04-30 21:15 | 43.92867 | 18.04641 | 36338 ft | 463 kts | 281° |
| 2026-04-30 21:15 | 43.93989 | 17.95795 | 36330 ft | 462 kts | 282° |
| 2026-04-30 21:16 | 43.95094 | 17.87065 | 36341 ft | 463 kts | 282° |
| 2026-04-30 21:16 | 43.96199 | 17.78263 | 36335 ft | 463 kts | 282° |
| 2026-04-30 21:17 | 43.97299 | 17.69448 | 36343 ft | 463 kts | 282° |
| 2026-04-30 21:17 | 43.98390 | 17.60637 | 36348 ft | 463 kts | 282° |
| 2026-04-30 21:18 | 43.99476 | 17.51813 | 36362 ft | 464 kts | 281° |
| 2026-04-30 21:18 | 44.00556 | 17.42978 | 36348 ft | 464 kts | 281° |
| 2026-04-30 21:19 | 44.01627 | 17.34139 | 36354 ft | 464 kts | 281° |
| 2026-04-30 21:19 | 44.02690 | 17.25298 | 36355 ft | 464 kts | 281° |
| 2026-04-30 21:20 | 44.03750 | 17.16447 | 36355 ft | 465 kts | 281° |
| 2026-04-30 21:20 | 44.04803 | 17.07589 | 36356 ft | 465 kts | 281° |
| 2026-04-30 21:21 | 44.05850 | 16.98722 | 36359 ft | 465 kts | 281° |
| 2026-04-30 21:22 | 44.07406 | 16.85423 | 36348 ft | 465 kts | 281° |
| 2026-04-30 21:23 | 44.09458 | 16.67680 | 36348 ft | 465 kts | 281° |
| 2026-04-30 21:23 | 44.10977 | 16.54360 | 36340 ft | 465 kts | 281° |
| 2026-04-30 21:24 | 44.11980 | 16.45479 | 36326 ft | 465 kts | 281° |
| 2026-04-30 21:24 | 44.12974 | 16.36639 | 36317 ft | 466 kts | 281° |
| 2026-04-30 21:25 | 44.14459 | 16.23278 | 36314 ft | 466 kts | 281° |
| 2026-04-30 21:26 | 44.15931 | 16.09899 | 36296 ft | 466 kts | 281° |
| 2026-04-30 21:27 | 44.17390 | 15.96527 | 36293 ft | 466 kts | 281° |
| 2026-04-30 21:27 | 44.18191 | 15.89110 | 36294 ft | 466 kts | 281° |
| 2026-04-30 21:28 | 44.19626 | 15.75715 | 36287 ft | 466 kts | 281° |
| 2026-04-30 21:29 | 44.21044 | 15.62319 | 36294 ft | 466 kts | 281° |
| 2026-04-30 21:30 | 44.23371 | 15.39968 | 36295 ft | 466 kts | 281° |
| 2026-04-30 21:31 | 44.25659 | 15.17575 | 36298 ft | 466 kts | 281° |
| 2026-04-30 21:32 | 44.27008 | 15.04143 | 36278 ft | 466 kts | 281° |
| 2026-04-30 21:32 | 44.27896 | 14.95192 | 36297 ft | 465 kts | 281° |
| 2026-04-30 21:33 | 44.29215 | 14.81787 | 36295 ft | 464 kts | 281° |
| 2026-04-30 21:34 | 44.30087 | 14.72855 | 36302 ft | 465 kts | 281° |
| 2026-04-30 21:34 | 44.31382 | 14.59436 | 36307 ft | 465 kts | 281° |
| 2026-04-30 21:35 | 44.32235 | 14.50493 | 36305 ft | 465 kts | 281° |
| 2026-04-30 21:35 | 44.33082 | 14.41548 | 36307 ft | 465 kts | 281° |
| 2026-04-30 21:36 | 44.33914 | 14.32653 | 36285 ft | 465 kts | 281° |
| 2026-04-30 21:37 | 44.35570 | 14.14760 | 36309 ft | 464 kts | 281° |
| 2026-04-30 21:37 | 44.36392 | 14.05806 | 36308 ft | 465 kts | 281° |
| 2026-04-30 21:38 | 44.37199 | 13.96847 | 36312 ft | 465 kts | 281° |
| 2026-04-30 21:38 | 44.38005 | 13.87887 | 36309 ft | 464 kts | 281° |
| 2026-04-30 21:39 | 44.38804 | 13.78925 | 36311 ft | 465 kts | 281° |
| 2026-04-30 21:39 | 44.39592 | 13.69956 | 36314 ft | 465 kts | 281° |
| 2026-04-30 21:40 | 44.40377 | 13.60982 | 36314 ft | 464 kts | 281° |
| 2026-04-30 21:40 | 44.41157 | 13.52014 | 36315 ft | 464 kts | 281° |
| 2026-04-30 21:41 | 44.42149 | 13.43123 | 36315 ft | 461 kts | 284° |
| 2026-04-30 21:41 | 44.43432 | 13.34329 | 36317 ft | 461 kts | 285° |
| 2026-04-30 21:42 | 44.44753 | 13.25553 | 36320 ft | 461 kts | 285° |
| 2026-04-30 21:42 | 44.46075 | 13.16761 | 36318 ft | 462 kts | 285° |
| 2026-04-30 21:43 | 44.47385 | 13.07946 | 36333 ft | 463 kts | 285° |
| 2026-04-30 21:43 | 44.48684 | 12.99136 | 36334 ft | 462 kts | 285° |
| 2026-04-30 21:44 | 44.49977 | 12.90313 | 36337 ft | 463 kts | 285° |
| 2026-04-30 21:44 | 44.51264 | 12.81475 | 36337 ft | 463 kts | 285° |
| 2026-04-30 21:45 | 44.52546 | 12.72616 | 36332 ft | 464 kts | 285° |
| 2026-04-30 21:45 | 44.53813 | 12.63809 | 36332 ft | 464 kts | 285° |
| 2026-04-30 21:46 | 44.55082 | 12.54941 | 36333 ft | 464 kts | 285° |
| 2026-04-30 21:46 | 44.56344 | 12.46080 | 36329 ft | 463 kts | 285° |
| 2026-04-30 21:47 | 44.57599 | 12.37231 | 36330 ft | 462 kts | 285° |
| 2026-04-30 21:47 | 44.58845 | 12.28379 | 36325 ft | 462 kts | 285° |
| 2026-04-30 21:48 | 44.60083 | 12.19522 | 36325 ft | 462 kts | 285° |
| 2026-04-30 21:48 | 44.61316 | 12.10666 | 36320 ft | 463 kts | 285° |
| 2026-04-30 21:49 | 44.62544 | 12.01784 | 36325 ft | 464 kts | 285° |
| 2026-04-30 21:49 | 44.63764 | 11.92895 | 36322 ft | 464 kts | 285° |
| 2026-04-30 21:50 | 44.64977 | 11.84002 | 36319 ft | 464 kts | 284° |
| 2026-04-30 21:50 | 44.66180 | 11.75105 | 36309 ft | 464 kts | 284° |
| 2026-04-30 21:51 | 44.67386 | 11.66203 | 36319 ft | 465 kts | 284° |
| 2026-04-30 21:51 | 44.68582 | 11.57275 | 36312 ft | 464 kts | 284° |
| 2026-04-30 21:52 | 44.69767 | 11.48355 | 36311 ft | 464 kts | 284° |
| 2026-04-30 21:52 | 44.70951 | 11.39435 | 36290 ft | 465 kts | 284° |
| 2026-04-30 21:53 | 44.72120 | 11.30544 | 36318 ft | 465 kts | 284° |
| 2026-04-30 21:53 | 44.73297 | 11.21543 | 36313 ft | 465 kts | 284° |
| 2026-04-30 21:54 | 44.74449 | 11.12659 | 36315 ft | 465 kts | 284° |
| 2026-04-30 21:54 | 44.75602 | 11.03715 | 36310 ft | 465 kts | 284° |
| 2026-04-30 21:55 | 44.76752 | 10.94760 | 36310 ft | 465 kts | 284° |
| 2026-04-30 21:55 | 44.77894 | 10.85798 | 36311 ft | 465 kts | 284° |
| 2026-04-30 21:56 | 44.79028 | 10.76834 | 36312 ft | 465 kts | 284° |
| 2026-04-30 21:56 | 44.80159 | 10.67871 | 36274 ft | 465 kts | 284° |
| 2026-04-30 21:57 | 44.81278 | 10.58900 | 36315 ft | 465 kts | 284° |
| 2026-04-30 21:57 | 44.82391 | 10.49912 | 36306 ft | 466 kts | 284° |
| 2026-04-30 21:58 | 44.83498 | 10.40907 | 36309 ft | 467 kts | 284° |
| 2026-04-30 21:58 | 44.84602 | 10.31905 | 36315 ft | 466 kts | 284° |
| 2026-04-30 21:59 | 44.85698 | 10.22903 | 36320 ft | 467 kts | 284° |
| 2026-04-30 22:00 | 44.87322 | 10.09423 | 36317 ft | 467 kts | 284° |
| 2026-04-30 22:00 | 44.88932 | 9.95875 | 36325 ft | 467 kts | 283° |
| 2026-04-30 22:01 | 44.90000 | 9.86841 | 36329 ft | 467 kts | 283° |
| 2026-04-30 22:01 | 44.91061 | 9.77812 | 36327 ft | 466 kts | 283° |
| 2026-04-30 22:02 | 44.92115 | 9.68783 | 36326 ft | 466 kts | 283° |
| 2026-04-30 22:02 | 44.93160 | 9.59746 | 36326 ft | 466 kts | 283° |
| 2026-04-30 22:03 | 44.94196 | 9.50713 | 36330 ft | 467 kts | 283° |
| 2026-04-30 22:03 | 44.95230 | 9.41645 | 36324 ft | 468 kts | 283° |
| 2026-04-30 22:04 | 44.96261 | 9.32561 | 36314 ft | 468 kts | 283° |
| 2026-04-30 22:05 | 44.97795 | 9.18938 | 36289 ft | 468 kts | 282° |
| 2026-04-30 22:05 | 44.98811 | 9.09829 | 36313 ft | 470 kts | 282° |
| 2026-04-30 22:06 | 44.99806 | 9.00768 | 36310 ft | 470 kts | 282° |
| 2026-04-30 22:06 | 45.01302 | 8.87081 | 36293 ft | 470 kts | 282° |
| 2026-04-30 22:07 | 45.02291 | 8.77949 | 36285 ft | 471 kts | 281° |
| 2026-04-30 22:07 | 45.03273 | 8.68802 | 36294 ft | 470 kts | 281° |
| 2026-04-30 22:08 | 45.04246 | 8.59656 | 36298 ft | 471 kts | 281° |
| 2026-04-30 22:08 | 45.05213 | 8.50502 | 36296 ft | 471 kts | 281° |
| 2026-04-30 22:09 | 45.06173 | 8.41343 | 36297 ft | 471 kts | 281° |
| 2026-04-30 22:09 | 45.07129 | 8.32188 | 36312 ft | 470 kts | 281° |
| 2026-04-30 22:10 | 45.08071 | 8.23032 | 36312 ft | 470 kts | 281° |
| 2026-04-30 22:10 | 45.09008 | 8.13877 | 36318 ft | 470 kts | 280° |
| 2026-04-30 22:11 | 45.10400 | 8.00135 | 36299 ft | 470 kts | 280° |
| 2026-04-30 22:12 | 45.11321 | 7.90957 | 36309 ft | 472 kts | 280° |
| 2026-04-30 22:12 | 45.12244 | 7.81741 | 36303 ft | 473 kts | 280° |
| 2026-04-30 22:13 | 45.13151 | 7.72519 | 36319 ft | 473 kts | 279° |
| 2026-04-30 22:13 | 45.14051 | 7.63297 | 36313 ft | 473 kts | 279° |
| 2026-04-30 22:14 | 45.14946 | 7.54059 | 36313 ft | 474 kts | 279° |
| 2026-04-30 22:14 | 45.15835 | 7.44815 | 36317 ft | 473 kts | 279° |
| 2026-04-30 22:15 | 45.16719 | 7.35573 | 36321 ft | 473 kts | 279° |
| 2026-04-30 22:15 | 45.17590 | 7.26328 | 36318 ft | 474 kts | 279° |
| 2026-04-30 22:16 | 45.18584 | 7.17110 | 36320 ft | 472 kts | 285° |
| 2026-04-30 22:17 | 45.23116 | 6.99786 | 36315 ft | 470 kts | 294° |
| 2026-04-30 22:17 | 45.26851 | 6.86915 | 36305 ft | 471 kts | 293° |
| 2026-04-30 22:18 | 45.30560 | 6.73964 | 36286 ft | 472 kts | 293° |
| 2026-04-30 22:19 | 45.33827 | 6.62456 | 36276 ft | 472 kts | 293° |
| 2026-04-30 22:20 | 45.37492 | 6.49474 | 36259 ft | 472 kts | 292° |
| 2026-04-30 22:20 | 45.40478 | 6.36146 | 36250 ft | 473 kts | 286° |
| 2026-04-30 22:21 | 45.42152 | 6.27069 | 36251 ft | 475 kts | 285° |
| 2026-04-30 22:21 | 45.43794 | 6.17965 | 36240 ft | 475 kts | 285° |
| 2026-04-30 22:22 | 45.45438 | 6.08873 | 36238 ft | 474 kts | 285° |
| 2026-04-30 22:22 | 45.47079 | 5.99789 | 36238 ft | 474 kts | 285° |
| 2026-04-30 22:23 | 45.48732 | 5.90705 | 36236 ft | 473 kts | 285° |
| 2026-04-30 22:23 | 45.50485 | 5.81659 | 36234 ft | 474 kts | 285° |
| 2026-04-30 22:24 | 45.52244 | 5.72617 | 36235 ft | 473 kts | 285° |
| 2026-04-30 22:24 | 45.53980 | 5.63570 | 36234 ft | 473 kts | 285° |
| 2026-04-30 22:25 | 45.55698 | 5.54526 | 36231 ft | 473 kts | 285° |
| 2026-04-30 22:25 | 45.57336 | 5.45504 | 36231 ft | 472 kts | 283° |
| 2026-04-30 22:26 | 45.59625 | 5.31868 | 36228 ft | 470 kts | 283° |
| 2026-04-30 22:27 | 45.61155 | 5.22774 | 36225 ft | 471 kts | 283° |
| 2026-04-30 22:27 | 45.63457 | 5.09133 | 36210 ft | 470 kts | 283° |
| 2026-04-30 22:28 | 45.65748 | 4.95458 | 36200 ft | 474 kts | 283° |
| 2026-04-30 22:29 | 45.68800 | 4.77117 | 36197 ft | 475 kts | 283° |
| 2026-04-30 22:31 | 45.74071 | 4.44859 | 36203 ft | 476 kts | 282° |
| 2026-04-30 22:32 | 45.77784 | 4.21784 | 36206 ft | 475 kts | 282° |
| 2026-04-30 22:33 | 45.81449 | 3.98713 | 36205 ft | 475 kts | 282° |
| 2026-04-30 22:35 | 45.85062 | 3.75639 | 36206 ft | 476 kts | 281° |
| 2026-04-30 22:36 | 45.88647 | 3.52430 | 36208 ft | 477 kts | 282° |
| 2026-04-30 22:37 | 45.91635 | 3.33903 | 36208 ft | 477 kts | 282° |
| 2026-04-30 22:38 | 45.94594 | 3.15305 | 36221 ft | 479 kts | 281° |
| 2026-04-30 22:39 | 45.96794 | 3.01277 | 36209 ft | 479 kts | 281° |
| 2026-04-30 22:40 | 45.99603 | 2.72983 | 36215 ft | 477 kts | 267° |
| 2026-04-30 22:41 | 45.98855 | 2.49136 | 36215 ft | 477 kts | 266° |
| 2026-04-30 22:43 | 45.97926 | 2.20555 | 36209 ft | 479 kts | 266° |
| 2026-04-30 22:44 | 45.97267 | 2.01444 | 36205 ft | 479 kts | 266° |
| 2026-04-30 22:45 | 45.96674 | 1.72720 | 36218 ft | 480 kts | 270° |
| 2026-04-30 22:47 | 45.96952 | 1.43924 | 36209 ft | 480 kts | 269° |
| 2026-04-30 22:48 | 45.96985 | 1.24727 | 36210 ft | 480 kts | 269° |
| 2026-04-30 22:49 | 45.96997 | 0.95921 | 36206 ft | 481 kts | 269° |
| 2026-04-30 22:51 | 45.96932 | 0.67168 | 36190 ft | 480 kts | 270° |
| 2026-04-30 22:52 | 45.96877 | 0.52804 | 36186 ft | 477 kts | 270° |
| 2026-04-30 22:53 | 45.96769 | 0.33760 | 36189 ft | 476 kts | 270° |
| 2026-04-30 22:53 | 45.96666 | 0.19506 | 36189 ft | 475 kts | 270° |
| 2026-04-30 22:55 | 45.96463 | -0.04239 | 36172 ft | 475 kts | 270° |
| 2026-04-30 22:56 | 45.96263 | -0.23137 | 36167 ft | 472 kts | 270° |
| 2026-04-30 22:57 | 45.95967 | -0.46714 | 36170 ft | 472 kts | 269° |
| 2026-04-30 22:58 | 45.95703 | -0.65526 | 36168 ft | 472 kts | 269° |
| 2026-04-30 22:59 | 45.95244 | -0.93698 | 36169 ft | 466 kts | 269° |
| 2026-05-01 07:23 | 16.49836 | -66.41825 | 39934 ft | 442 kts | 240° |
| 2026-05-01 07:24 | 16.44885 | -66.49945 | 39935 ft | 442 kts | 240° |
| 2026-05-01 07:24 | 16.41583 | -66.55355 | 39933 ft | 442 kts | 240° |
| 2026-05-01 07:25 | 16.38284 | -66.60754 | 39929 ft | 441 kts | 239° |
| 2026-05-01 07:25 | 16.34996 | -66.66130 | 39928 ft | 440 kts | 240° |
| 2026-05-01 07:26 | 16.31701 | -66.71517 | 39930 ft | 442 kts | 240° |
| 2026-05-01 07:26 | 16.28399 | -66.76910 | 39930 ft | 442 kts | 240° |
| 2026-05-01 07:27 | 16.25092 | -66.82308 | 39930 ft | 442 kts | 240° |
| 2026-05-01 07:27 | 16.21787 | -66.87698 | 39930 ft | 442 kts | 240° |
| 2026-05-01 07:28 | 16.18501 | -66.93053 | 39927 ft | 442 kts | 239° |
| 2026-05-01 07:28 | 16.15199 | -66.98431 | 39928 ft | 441 kts | 239° |
| 2026-05-01 07:29 | 16.11894 | -67.03810 | 39927 ft | 441 kts | 239° |
| 2026-05-01 07:29 | 16.08589 | -67.09182 | 39923 ft | 441 kts | 240° |
| 2026-05-01 07:30 | 16.05284 | -67.14551 | 39930 ft | 441 kts | 240° |
| 2026-05-01 07:30 | 16.01979 | -67.19919 | 39927 ft | 441 kts | 240° |
| 2026-05-01 07:31 | 15.98670 | -67.25288 | 39928 ft | 442 kts | 240° |
| 2026-05-01 07:32 | 15.90365 | -67.38746 | 39925 ft | 443 kts | 240° |
| 2026-05-01 07:33 | 15.85150 | -67.46674 | 39927 ft | 446 kts | 232° |
| 2026-05-01 07:33 | 15.77621 | -67.52458 | 39924 ft | 459 kts | 210° |
| 2026-05-01 07:34 | 15.68756 | -67.56281 | 39926 ft | 461 kts | 206° |
| 2026-05-01 07:35 | 15.62790 | -67.58735 | 39923 ft | 461 kts | 207° |
| 2026-05-01 07:35 | 15.56837 | -67.61219 | 39919 ft | 461 kts | 207° |
| 2026-05-01 07:36 | 15.50897 | -67.63719 | 39929 ft | 461 kts | 207° |
| 2026-05-01 07:36 | 15.44957 | -67.66224 | 39921 ft | 461 kts | 207° |
| 2026-05-01 07:37 | 15.36094 | -67.69958 | 39919 ft | 460 kts | 207° |
| 2026-05-01 07:37 | 15.30160 | -67.72455 | 39918 ft | 460 kts | 207° |
| 2026-05-01 07:38 | 15.24220 | -67.74953 | 39913 ft | 460 kts | 207° |
| 2026-05-01 07:39 | 15.15318 | -67.78693 | 39924 ft | 460 kts | 207° |
| 2026-05-01 07:39 | 15.06414 | -67.82431 | 39909 ft | 460 kts | 207° |
| 2026-05-01 07:40 | 15.00479 | -67.84920 | 39906 ft | 460 kts | 207° |
| 2026-05-01 07:40 | 14.94542 | -67.87409 | 39904 ft | 460 kts | 207° |
| 2026-05-01 07:41 | 14.88607 | -67.89895 | 39910 ft | 460 kts | 207° |
| 2026-05-01 07:42 | 14.79708 | -67.93621 | 39911 ft | 459 kts | 207° |
| 2026-05-01 07:42 | 14.73783 | -67.96099 | 39910 ft | 459 kts | 207° |
| 2026-05-01 07:43 | 14.67857 | -67.98577 | 39909 ft | 459 kts | 207° |
| 2026-05-01 07:43 | 14.58969 | -68.02294 | 39909 ft | 459 kts | 207° |
| 2026-05-01 07:44 | 14.47079 | -68.07253 | 39909 ft | 463 kts | 207° |
| 2026-05-01 07:45 | 14.41103 | -68.09744 | 39906 ft | 463 kts | 207° |
| 2026-05-01 07:45 | 14.35162 | -68.12219 | 39905 ft | 463 kts | 207° |
| 2026-05-01 07:46 | 14.29185 | -68.14708 | 39905 ft | 463 kts | 207° |
| 2026-05-01 07:47 | 14.20215 | -68.18442 | 39907 ft | 463 kts | 206° |
| 2026-05-01 07:47 | 14.14244 | -68.20937 | 39900 ft | 462 kts | 206° |
| 2026-05-01 07:48 | 14.05332 | -68.24642 | 39902 ft | 460 kts | 206° |
| 2026-05-01 07:48 | 13.99388 | -68.27113 | 39900 ft | 460 kts | 206° |
| 2026-05-01 07:49 | 13.90480 | -68.30818 | 39894 ft | 460 kts | 206° |
| 2026-05-01 07:50 | 13.84531 | -68.33290 | 39895 ft | 462 kts | 207° |
| 2026-05-01 07:50 | 13.75588 | -68.36999 | 39898 ft | 462 kts | 206° |
| 2026-05-01 07:51 | 13.69619 | -68.39469 | 39897 ft | 462 kts | 206° |
| 2026-05-01 07:52 | 13.60672 | -68.43170 | 39897 ft | 462 kts | 206° |
| 2026-05-01 07:52 | 13.54705 | -68.45638 | 39897 ft | 462 kts | 206° |
| 2026-05-01 07:53 | 13.45757 | -68.49335 | 39894 ft | 462 kts | 206° |
| 2026-05-01 07:53 | 13.39796 | -68.51800 | 39896 ft | 462 kts | 207° |
| 2026-05-01 07:55 | 13.24928 | -68.57940 | 39892 ft | 459 kts | 206° |
| 2026-05-01 07:56 | 13.10141 | -68.64041 | 39892 ft | 458 kts | 206° |
| 2026-05-01 07:57 | 13.01310 | -68.67681 | 39892 ft | 458 kts | 206° |
| 2026-05-01 07:58 | 12.89464 | -68.72561 | 39892 ft | 464 kts | 206° |
| 2026-05-01 07:59 | 12.77397 | -68.77525 | 39894 ft | 468 kts | 205° |
| 2026-05-01 08:00 | 12.59268 | -68.84969 | 39903 ft | 467 kts | 207° |
| 2026-05-01 08:01 | 12.47240 | -68.89905 | 39904 ft | 466 kts | 207° |
| 2026-05-01 08:02 | 12.38216 | -68.93606 | 39906 ft | 466 kts | 207° |
| 2026-05-01 08:03 | 12.30205 | -68.96887 | 39911 ft | 466 kts | 206° |
| 2026-05-01 08:03 | 12.21281 | -69.00687 | 39907 ft | 458 kts | 212° |
| 2026-05-01 08:04 | 12.11293 | -69.08417 | 39909 ft | 450 kts | 224° |
| 2026-05-01 08:05 | 12.04178 | -69.14672 | 39899 ft | 450 kts | 224° |
| 2026-05-01 08:06 | 11.97038 | -69.20901 | 39883 ft | 450 kts | 224° |
| 2026-05-01 08:07 | 11.87485 | -69.29201 | 39881 ft | 452 kts | 224° |
| 2026-05-01 08:08 | 11.80300 | -69.35437 | 39879 ft | 452 kts | 224° |
| 2026-05-01 08:09 | 11.70724 | -69.43745 | 39876 ft | 452 kts | 224° |
| 2026-05-01 08:09 | 11.65932 | -69.47900 | 39878 ft | 452 kts | 224° |
| 2026-05-01 08:10 | 11.56365 | -69.56189 | 39881 ft | 450 kts | 223° |
| 2026-05-01 08:11 | 11.46823 | -69.64451 | 39881 ft | 450 kts | 223° |
| 2026-05-01 08:12 | 11.39706 | -69.70624 | 39881 ft | 450 kts | 224° |
| 2026-05-01 08:13 | 11.32758 | -69.77096 | 39884 ft | 449 kts | 226° |
| 2026-05-01 08:13 | 11.25875 | -69.83572 | 39878 ft | 449 kts | 225° |
| 2026-05-01 08:14 | 11.21266 | -69.87866 | 39878 ft | 449 kts | 225° |
| 2026-05-01 08:14 | 11.16654 | -69.92152 | 39887 ft | 449 kts | 225° |
| 2026-05-01 08:15 | 11.09766 | -69.98545 | 39874 ft | 448 kts | 225° |
| 2026-05-01 08:16 | 11.05164 | -70.02819 | 39883 ft | 448 kts | 225° |
| 2026-05-01 08:16 | 11.00564 | -70.07106 | 39877 ft | 448 kts | 225° |
| 2026-05-01 08:17 | 10.95957 | -70.11407 | 39879 ft | 451 kts | 225° |
| 2026-05-01 08:17 | 10.91327 | -70.15726 | 39885 ft | 452 kts | 225° |
| 2026-05-01 08:18 | 10.86695 | -70.20049 | 39886 ft | 451 kts | 225° |
| 2026-05-01 08:19 | 10.77422 | -70.28692 | 39887 ft | 453 kts | 225° |
| 2026-05-01 08:19 | 10.72783 | -70.33007 | 39893 ft | 451 kts | 225° |
| 2026-05-01 08:20 | 10.68166 | -70.37317 | 39880 ft | 451 kts | 225° |
| 2026-05-01 08:20 | 10.63551 | -70.41631 | 39888 ft | 451 kts | 225° |
| 2026-05-01 08:21 | 10.58913 | -70.45942 | 39890 ft | 452 kts | 225° |
| 2026-05-01 08:21 | 10.54297 | -70.50209 | 39880 ft | 452 kts | 225° |
| 2026-05-01 08:22 | 10.49648 | -70.54509 | 39886 ft | 452 kts | 225° |
| 2026-05-01 08:22 | 10.45007 | -70.58807 | 39885 ft | 452 kts | 225° |
| 2026-05-01 08:23 | 10.40358 | -70.63111 | 39878 ft | 452 kts | 225° |
| 2026-05-01 08:23 | 10.35710 | -70.67414 | 39880 ft | 452 kts | 225° |
| 2026-05-01 08:24 | 10.31062 | -70.71717 | 39879 ft | 452 kts | 225° |
| 2026-05-01 08:24 | 10.26412 | -70.76018 | 39864 ft | 452 kts | 225° |
| 2026-05-01 08:25 | 10.21758 | -70.80315 | 39864 ft | 452 kts | 225° |
| 2026-05-01 08:25 | 10.17104 | -70.84612 | 39865 ft | 452 kts | 225° |
| 2026-05-01 08:26 | 10.12451 | -70.88910 | 39850 ft | 452 kts | 225° |
| 2026-05-01 08:26 | 10.07808 | -70.93202 | 39850 ft | 451 kts | 225° |
| 2026-05-01 08:27 | 10.03163 | -70.97487 | 39854 ft | 451 kts | 225° |
| 2026-05-01 08:27 | 9.98519 | -71.01770 | 39827 ft | 451 kts | 225° |
| 2026-05-01 08:28 | 9.93871 | -71.06056 | 39830 ft | 451 kts | 225° |
| 2026-05-01 08:28 | 9.89227 | -71.10339 | 39828 ft | 451 kts | 225° |
| 2026-05-01 08:29 | 9.84582 | -71.14620 | 39829 ft | 451 kts | 225° |
| 2026-05-01 08:29 | 9.79936 | -71.18900 | 39825 ft | 451 kts | 225° |
| 2026-05-01 08:30 | 9.75322 | -71.23151 | 39828 ft | 451 kts | 225° |
| 2026-05-01 08:30 | 9.70675 | -71.27426 | 39826 ft | 451 kts | 225° |
| 2026-05-01 08:31 | 9.66028 | -71.31699 | 39823 ft | 451 kts | 225° |
| 2026-05-01 08:31 | 9.61365 | -71.35988 | 39825 ft | 454 kts | 225° |
| 2026-05-01 08:32 | 9.56685 | -71.40289 | 39827 ft | 454 kts | 224° |
| 2026-05-01 08:32 | 9.52007 | -71.44586 | 39827 ft | 454 kts | 224° |
| 2026-05-01 08:33 | 9.47331 | -71.48881 | 39829 ft | 454 kts | 224° |
| 2026-05-01 08:33 | 9.42653 | -71.53176 | 39829 ft | 454 kts | 224° |
| 2026-05-01 08:34 | 9.37974 | -71.57469 | 39827 ft | 454 kts | 225° |
| 2026-05-01 08:34 | 9.33300 | -71.61758 | 39823 ft | 453 kts | 224° |
| 2026-05-01 08:35 | 9.28612 | -71.66058 | 39825 ft | 456 kts | 224° |
| 2026-05-01 08:35 | 9.23911 | -71.70368 | 39825 ft | 457 kts | 224° |
| 2026-05-01 08:36 | 9.19204 | -71.74682 | 39825 ft | 457 kts | 224° |
| 2026-05-01 08:36 | 9.14491 | -71.78991 | 39825 ft | 456 kts | 224° |
| 2026-05-01 08:37 | 9.09784 | -71.83297 | 39828 ft | 456 kts | 224° |
| 2026-05-01 08:37 | 9.05074 | -71.87615 | 39829 ft | 457 kts | 224° |
| 2026-05-01 08:38 | 9.00363 | -71.91924 | 39830 ft | 457 kts | 224° |
| 2026-05-01 08:38 | 8.95189 | -71.95607 | 39830 ft | 461 kts | 214° |
| 2026-05-01 08:39 | 8.89604 | -71.98836 | 39828 ft | 463 kts | 212° |
| 2026-05-01 08:39 | 8.83964 | -72.01972 | 39829 ft | 462 kts | 212° |
| 2026-05-01 08:40 | 8.75512 | -72.06672 | 39831 ft | 462 kts | 212° |
| 2026-05-01 08:40 | 8.69882 | -72.09821 | 39832 ft | 462 kts | 212° |
| 2026-05-01 08:41 | 8.64255 | -72.12972 | 39839 ft | 462 kts | 212° |
| 2026-05-01 08:41 | 8.58638 | -72.16116 | 39840 ft | 461 kts | 212° |
| 2026-05-01 08:42 | 8.53025 | -72.19257 | 39840 ft | 461 kts | 212° |
| 2026-05-01 08:42 | 8.47411 | -72.22395 | 39859 ft | 461 kts | 212° |
| 2026-05-01 08:43 | 8.41807 | -72.25530 | 39861 ft | 461 kts | 212° |
| 2026-05-01 08:43 | 8.36198 | -72.28665 | 39863 ft | 460 kts | 212° |
| 2026-05-01 08:44 | 8.30599 | -72.31793 | 39859 ft | 460 kts | 212° |
| 2026-05-01 08:44 | 8.24979 | -72.34933 | 39861 ft | 463 kts | 212° |
| 2026-05-01 08:45 | 8.19326 | -72.38075 | 39890 ft | 465 kts | 210° |
| 2026-05-01 08:45 | 8.13434 | -72.40794 | 39889 ft | 466 kts | 207° |
| 2026-05-01 08:46 | 8.07562 | -72.43460 | 39906 ft | 467 kts | 207° |
| 2026-05-01 08:46 | 8.01621 | -72.46197 | 39913 ft | 466 kts | 207° |
| 2026-05-01 08:47 | 7.95768 | -72.48907 | 39903 ft | 466 kts | 208° |
| 2026-05-01 08:47 | 7.89870 | -72.51637 | 39913 ft | 468 kts | 208° |
| 2026-05-01 08:48 | 7.83949 | -72.54384 | 39913 ft | 469 kts | 208° |
| 2026-05-01 08:48 | 7.78023 | -72.57133 | 39963 ft | 469 kts | 208° |
| 2026-05-01 08:49 | 7.72098 | -72.59879 | 39957 ft | 469 kts | 207° |
| 2026-05-01 08:49 | 7.66180 | -72.62622 | 40001 ft | 468 kts | 207° |
| 2026-05-01 08:50 | 7.60254 | -72.65367 | 39999 ft | 468 kts | 207° |
| 2026-05-01 08:50 | 7.54349 | -72.68100 | 39999 ft | 466 kts | 207° |
| 2026-05-01 08:51 | 7.49453 | -72.70366 | 40030 ft | 466 kts | 207° |
| 2026-05-01 08:51 | 7.43567 | -72.73091 | 40024 ft | 466 kts | 207° |
| 2026-05-01 08:52 | 7.37675 | -72.75817 | 40041 ft | 466 kts | 207° |
| 2026-05-01 08:52 | 7.31788 | -72.78540 | 40046 ft | 466 kts | 207° |
| 2026-05-01 08:53 | 7.25898 | -72.81265 | 40018 ft | 466 kts | 207° |
| 2026-05-01 08:53 | 7.19998 | -72.83991 | 40016 ft | 467 kts | 207° |
| 2026-05-01 08:54 | 7.14098 | -72.86718 | 40018 ft | 467 kts | 207° |
| 2026-05-01 08:54 | 7.08196 | -72.89445 | 40008 ft | 467 kts | 207° |
| 2026-05-01 08:55 | 7.02299 | -72.92170 | 40020 ft | 467 kts | 207° |
| 2026-05-01 08:55 | 6.96396 | -72.94893 | 40001 ft | 466 kts | 207° |
| 2026-05-01 08:56 | 6.90495 | -72.97618 | 39959 ft | 467 kts | 207° |
| 2026-05-01 08:56 | 6.84581 | -73.00347 | 39953 ft | 467 kts | 207° |
| 2026-05-01 08:57 | 6.78708 | -73.03057 | 39946 ft | 467 kts | 207° |
| 2026-05-01 08:57 | 6.72795 | -73.05784 | 39945 ft | 467 kts | 207° |
| 2026-05-01 08:58 | 6.66884 | -73.08509 | 39935 ft | 468 kts | 207° |
| 2026-05-01 08:58 | 6.60966 | -73.11237 | 39924 ft | 468 kts | 207° |
| 2026-05-01 08:59 | 6.55045 | -73.13967 | 39929 ft | 469 kts | 207° |
| 2026-05-01 08:59 | 6.49088 | -73.16718 | 39933 ft | 470 kts | 206° |
| 2026-05-01 09:00 | 6.43149 | -73.19445 | 39939 ft | 469 kts | 207° |
| 2026-05-01 09:00 | 6.37209 | -73.22177 | 39950 ft | 469 kts | 207° |
| 2026-05-01 09:01 | 6.31275 | -73.24910 | 39931 ft | 468 kts | 207° |
| 2026-05-01 09:01 | 6.25342 | -73.27636 | 39948 ft | 470 kts | 207° |
| 2026-05-01 09:02 | 6.19404 | -73.30381 | 39939 ft | 470 kts | 207° |
| 2026-05-01 09:02 | 6.13453 | -73.33113 | 39944 ft | 471 kts | 207° |
| 2026-05-01 09:03 | 6.07499 | -73.35851 | 39972 ft | 471 kts | 207° |
| 2026-05-01 09:03 | 6.01543 | -73.38589 | 39952 ft | 471 kts | 207° |
| 2026-05-01 09:04 | 5.98572 | -73.39955 | 39782 ft | 467 kts | 207° |
| 2026-05-01 09:04 | 5.95619 | -73.41313 | 39070 ft | 469 kts | 207° |
| 2026-05-01 09:04 | 5.92647 | -73.42681 | 38301 ft | 471 kts | 207° |
| 2026-05-01 09:04 | 5.89673 | -73.44048 | 37622 ft | 469 kts | 207° |
| 2026-05-01 09:05 | 5.86707 | -73.45413 | 36977 ft | 468 kts | 207° |
| 2026-05-01 09:05 | 5.83840 | -73.46924 | 36273 ft | 466 kts | 214° |
| 2026-05-01 09:05 | 5.81170 | -73.48767 | 35476 ft | 466 kts | 219° |
| 2026-05-01 09:05 | 5.78567 | -73.50697 | 34790 ft | 465 kts | 219° |
| 2026-05-01 09:06 | 5.75965 | -73.52638 | 34019 ft | 466 kts | 219° |
| 2026-05-01 09:06 | 5.73361 | -73.54579 | 33331 ft | 464 kts | 219° |
| 2026-05-01 09:06 | 5.70817 | -73.56470 | 32825 ft | 459 kts | 218° |
| 2026-05-01 09:06 | 5.68269 | -73.58362 | 32333 ft | 453 kts | 218° |
| 2026-05-01 09:07 | 5.65746 | -73.60236 | 31806 ft | 448 kts | 217° |
| 2026-05-01 09:07 | 5.63250 | -73.62088 | 31287 ft | 444 kts | 217° |
| 2026-05-01 09:07 | 5.60778 | -73.63920 | 30766 ft | 440 kts | 216° |
| 2026-05-01 09:07 | 5.58330 | -73.65736 | 30234 ft | 436 kts | 216° |
| 2026-05-01 09:08 | 5.55899 | -73.67536 | 29672 ft | 432 kts | 215° |
| 2026-05-01 09:08 | 5.53491 | -73.69319 | 29181 ft | 427 kts | 215° |
| 2026-05-01 09:08 | 5.51112 | -73.71081 | 28682 ft | 425 kts | 215° |
| 2026-05-01 09:08 | 5.48738 | -73.72839 | 28185 ft | 424 kts | 215° |
| 2026-05-01 09:09 | 5.46372 | -73.74589 | 27684 ft | 420 kts | 214° |
| 2026-05-01 09:09 | 5.44070 | -73.76373 | 27181 ft | 418 kts | 219° |
| 2026-05-01 09:09 | 5.42090 | -73.78523 | 26663 ft | 421 kts | 232° |
| 2026-05-01 09:09 | 5.40673 | -73.81097 | 26138 ft | 423 kts | 246° |
| 2026-05-01 09:10 | 5.39665 | -73.83866 | 25599 ft | 423 kts | 249° |
| 2026-05-01 09:10 | 5.38727 | -73.86657 | 25089 ft | 422 kts | 249° |
| 2026-05-01 09:10 | 5.37793 | -73.89440 | 24561 ft | 420 kts | 249° |
| 2026-05-01 09:10 | 5.36854 | -73.92212 | 24030 ft | 419 kts | 249° |
| 2026-05-01 09:11 | 5.35918 | -73.94964 | 23630 ft | 412 kts | 249° |
| 2026-05-01 09:11 | 5.35009 | -73.97634 | 23511 ft | 398 kts | 249° |
| 2026-05-01 09:11 | 5.34126 | -74.00223 | 23344 ft | 386 kts | 249° |
| 2026-05-01 09:11 | 5.33262 | -74.02750 | 22876 ft | 383 kts | 249° |
| 2026-05-01 09:12 | 5.32397 | -74.05273 | 22342 ft | 382 kts | 249° |
| 2026-05-01 09:12 | 5.31538 | -74.07782 | 21824 ft | 379 kts | 249° |
| 2026-05-01 09:12 | 5.30682 | -74.10275 | 21361 ft | 377 kts | 249° |
| 2026-05-01 09:12 | 5.29830 | -74.12759 | 20896 ft | 376 kts | 249° |
| 2026-05-01 09:13 | 5.28994 | -74.15201 | 20441 ft | 375 kts | 249° |
| 2026-05-01 09:13 | 5.28149 | -74.17669 | 19969 ft | 373 kts | 249° |
| 2026-05-01 09:13 | 5.27294 | -74.20162 | 19532 ft | 372 kts | 249° |
| 2026-05-01 09:13 | 5.26457 | -74.22609 | 19138 ft | 367 kts | 249° |
| 2026-05-01 09:14 | 5.25641 | -74.24988 | 19001 ft | 354 kts | 248° |
| 2026-05-01 09:14 | 5.24852 | -74.27288 | 18793 ft | 346 kts | 249° |
| 2026-05-01 09:14 | 5.24069 | -74.29572 | 18355 ft | 347 kts | 249° |
| 2026-05-01 09:14 | 5.23464 | -74.31873 | 17640 ft | 345 kts | 262° |
| 2026-05-01 09:15 | 5.23495 | -74.34263 | 17466 ft | 348 kts | 273° |
| 2026-05-01 09:15 | 5.23684 | -74.36689 | 17418 ft | 350 kts | 273° |
| 2026-05-01 09:15 | 5.23880 | -74.39117 | 17410 ft | 349 kts | 273° |
| 2026-05-01 09:15 | 5.24074 | -74.41545 | 17417 ft | 349 kts | 273° |
| 2026-05-01 09:16 | 5.24267 | -74.43966 | 17412 ft | 348 kts | 273° |
| 2026-05-01 09:16 | 5.24230 | -74.46380 | 17410 ft | 346 kts | 258° |
| 2026-05-01 09:16 | 5.23568 | -74.48682 | 17421 ft | 343 kts | 248° |
| 2026-05-01 09:17 | 5.21867 | -74.53158 | 17398 ft | 344 kts | 246° |
| 2026-05-01 09:17 | 5.20991 | -74.55381 | 17388 ft | 342 kts | 243° |
| 2026-05-01 09:17 | 5.17865 | -74.58746 | 17252 ft | 330 kts | 209° |
| 2026-05-01 09:18 | 5.15740 | -74.59832 | 17220 ft | 353 kts | 198° |
| 2026-05-01 09:18 | 5.10990 | -74.59894 | 16254 ft | 342 kts | 156° |
| 2026-05-01 09:19 | 5.07005 | -74.57384 | 15165 ft | 342 kts | 151° |
| 2026-05-01 09:19 | 5.04943 | -74.56237 | 14747 ft | 330 kts | 148° |
| 2026-05-01 09:19 | 5.02970 | -74.55023 | 14306 ft | 337 kts | 146° |
| 2026-05-01 09:20 | 4.99340 | -74.52145 | 13480 ft | 323 kts | 133° |
| 2026-05-01 09:20 | 4.96622 | -74.48944 | 12655 ft | 283 kts | 126° |
| 2026-05-01 09:21 | 4.94370 | -74.45866 | 11978 ft | 274 kts | 126° |
| 2026-05-01 09:21 | 4.93254 | -74.44323 | 11874 ft | 271 kts | 126° |
| 2026-05-01 09:21 | 4.91070 | -74.41271 | 11670 ft | 265 kts | 126° |
| 2026-05-01 09:22 | 4.89056 | -74.38462 | 11696 ft | 232 kts | 127° |
| 2026-05-01 09:22 | 4.87235 | -74.35920 | 11749 ft | 225 kts | 127° |
| 2026-05-01 09:23 | 4.86317 | -74.34645 | 11786 ft | 226 kts | 126° |
| 2026-05-01 09:23 | 4.84476 | -74.32074 | 11794 ft | 225 kts | 125° |
| 2026-05-01 09:24 | 4.82546 | -74.29925 | 11871 ft | 187 kts | 135° |
| 2026-05-01 09:24 | 4.81754 | -74.29006 | 11891 ft | 162 kts | 127° |
| 2026-05-01 09:24 | 4.80477 | -74.27338 | 11573 ft | 145 kts | 127° |
| 2026-05-01 09:25 | 4.79263 | -74.25741 | 11158 ft | 144 kts | 126° |
| 2026-05-01 09:25 | 4.78057 | -74.24142 | 10797 ft | 144 kts | 127° |
| 2026-05-01 09:26 | 4.77453 | -74.23340 | 10611 ft | 144 kts | 127° |
| 2026-05-01 09:26 | 4.76245 | -74.21737 | 10254 ft | 145 kts | 127° |
| 2026-05-01 09:26 | 4.75638 | -74.20929 | 10046 ft | 145 kts | 127° |
| 2026-05-01 09:27 | 4.74430 | -74.19323 | 9663 ft | 144 kts | 127° |
| 2026-05-01 09:27 | 4.73830 | -74.18525 | 9485 ft | 143 kts | 125° |
| 2026-05-01 09:27 | 4.73233 | -74.17730 | 9247 ft | 143 kts | 126° |
| 2026-05-01 09:28 | 4.72631 | -74.16931 | 8992 ft | 144 kts | 125° |
| 2026-05-01 09:28 | 4.72029 | -74.16129 | 8689 ft | 144 kts | 124° |
| 2026-05-01 09:28 | 4.71430 | -74.15330 | 8440 ft | 143 kts | 124° |
| 2026-05-01 09:28 | 4.70839 | -74.14552 | 8383 ft | 134 kts | 124° |
| 2026-05-01 09:29 | 4.70018 | -74.13463 | 8374 ft | 31 kts | 127° |
| 2026-05-01 09:29 | 4.69875 | -74.13335 | 8374 ft | 22 kts | 157° |
| 2026-05-01 09:30 | 4.69711 | -74.13304 | 8378 ft | 9 kts | 171° |
| 2026-05-01 09:30 | 4.69680 | -74.13317 | 8374 ft | 3 kts | 248° |
| 2026-05-01 09:30 | 4.69758 | -74.13446 | 8377 ft | 16 kts | 306° |
| 2026-05-01 09:31 | 4.69818 | -74.13526 | 8377 ft | 9 kts | 307° |
| 2026-05-01 09:31 | 4.69857 | -74.13576 | 8376 ft | 7 kts | 307° |
| 2026-05-01 09:31 | 4.69940 | -74.13688 | 8375 ft | 12 kts | 307° |
| 2026-05-01 09:32 | 4.69997 | -74.13763 | 8377 ft | 14 kts | 307° |
| 2026-05-01 09:32 | 4.70036 | -74.13814 | 8379 ft | 3 kts | 307° |
| 2026-05-01 09:32 | 4.70066 | -74.13854 | 8374 ft | 10 kts | 307° |
| 2026-05-01 09:33 | 4.70117 | -74.13921 | 8374 ft | 11 kts | 307° |
| 2026-05-01 09:33 | 4.70126 | -74.13976 | 8376 ft | 8 kts | 240° |
| 2026-05-01 09:33 | 4.70055 | -74.14068 | 8376 ft | 7 kts | 245° |
| 2026-05-01 09:34 | 4.70018 | -74.14106 | 8376 ft | 7 kts | 219° |
| 2026-05-01 09:34 | 4.69998 | -74.14121 | 8376 ft | 1 kts | 216° |
| 2026-05-01 09:34 | 4.69994 | -74.14124 | 8379 ft | 0 kts | 216° |